Hauptseite
METAR-TAF:

METAR-TAF

Flughäfen :

Flughafen Kristianstad

Kristianstad, Schweden

Breite: 55-55N, Länge: 014-05E, Höhe: 23 m

Beobachtung

Neuester Wetterbericht von vor 33 Minuten, um 00:50 UTC
Wind 2 kt aus unterschiedlichen Richtungen
Temperatur 12°C
Luftfeuchtigkeit 100%
Luftdruck 1010 hPa
Sichtweite 10 km oder mehr

METAR: ESMK 170050Z AUTO VRB02KT 9999 OVC100/// 12/12 Q1010

Zeit: 03:23 (01:23 UTC)


TAF: fehlend

Wetterbeobachtungen und Prognosen von mehr als 4000 Flughäfen (METAR und TAF Bericht).

Die verfügbaren Stationen werden durch gelbe und rote Markierungen auf der Karte dargestellt.

Führen Sie die Maus auf sie, um den Namen der Station zu sehen.

Darauf klicken, um die Beobachtung von Wetterbeobachtungen und Prognosen zu sehen.

Um die Karte zu ändern : klicken Sie auf den grünen Tasten mit einem schwarzen Kreuz Zum Vergrößern, auf den grünen Button mit einem Gedankenstrich zu verkleinern, oder auf die grünen Pfeile für benachbarte Karten.


METAR-TAF: